Time;durP1;ratioP1;P1;durP2;ratioP2;P2;SDS_P1;SDS_P2;PMS_P1;PMS_P2;Temp;Humidity;BMP_temperature;BMP_pressure;BME280_temperature;BME280_humidity;BME280_pressure;Samples;Min_cycle;Max_cycle;Signal;HPM_P1;HPM_P2
2021/08/27 08:40:02;;;;;;;28.02;8.63;;;21.50;94.80;;;;;;14939819;22;1342092;-51
2021/08/27 08:45:50;;;;;;;20.67;8.07;;;21.50;94.00;;;;;;14873094;23;20023;-52
2021/08/27 08:51:37;;;;;;;22.00;6.95;;;21.50;93.90;;;;;;14878964;23;20030;-50
2021/08/27 08:57:25;;;;;;;23.52;7.65;;;21.60;93.00;;;;;;14879244;23;20056;-50
2021/08/27 09:03:13;;;;;;;32.92;13.40;;;21.90;92.70;;;;;;14879850;23;20091;-50
2021/08/27 09:09:01;;;;;;;23.75;7.72;;;21.80;90.60;;;;;;14877965;23;20099;-49
2021/08/27 09:15:01;;;;;;;15.48;4.43;;;21.80;91.00;;;;;;14870924;23;20020;-49
2021/08/27 09:20:48;;;;;;;15.32;5.25;;;21.40;88.10;;;;;;14862622;23;20095;-48
2021/08/27 09:26:35;;;;;;;12.73;4.80;;;21.50;90.40;;;;;;14862570;23;20062;-48
2021/08/27 09:32:28;;;;;;;10.88;3.80;;;21.50;87.80;;;;;;14861473;23;20095;-49
2021/08/27 09:38:16;;;;;;;10.95;4.10;;;21.30;87.90;;;;;;14862453;23;20083;-49
2021/08/27 09:44:04;;;;;;;14.60;4.03;;;21.30;87.90;;;;;;14858922;23;20099;-51
2021/08/27 09:49:52;;;;;;;18.15;3.60;;;21.50;86.60;;;;;;14861561;23;20038;-53
2021/08/27 09:55:53;;;;;;;16.75;4.47;;;21.50;86.00;;;;;;14860283;23;20020;-54
2021/08/27 10:01:47;;;;;;;19.08;4.03;;;21.40;84.60;;;;;;14861656;23;20127;-51
2021/08/27 10:07:38;;;;;;;13.13;3.58;;;21.60;85.90;;;;;;14861505;23;20466;-48
2021/08/27 10:13:26;;;;;;;9.18;3.50;;;22.10;85.30;;;;;;14861364;23;20035;-50
2021/08/27 10:19:15;;;;;;;9.13;3.17;;;22.00;82.40;;;;;;14834924;23;20036;-47
2021/08/27 10:25:07;;;;;;;24.40;12.65;;;22.00;81.30;;;;;;14860895;23;20528;-48
2021/08/27 10:30:58;;;;;;;12.43;4.80;;;22.10;81.40;;;;;;14860376;23;20426;-47
2021/08/27 10:36:52;;;;;;;11.85;3.83;;;22.30;80.40;;;;;;14860994;23;20102;-48
2021/08/27 10:42:52;;;;;;;12.88;3.83;;;22.50;81.70;;;;;;14837303;23;20024;-51
2021/08/27 10:48:48;;;;;;;12.35;2.67;;;22.60;80.60;;;;;;14830270;23;20067;-47
2021/08/27 10:55:10;;;;;;;10.13;3.03;;;22.90;76.90;;;;;;14851929;23;20020;-47
2021/08/27 11:00:58;;;;;;;6.85;2.15;;;22.80;76.30;;;;;;14859147;23;20048;-47
2021/08/27 11:06:49;;;;;;;9.10;1.92;;;22.90;75.80;;;;;;14859139;23;20542;-49
2021/08/27 11:12:37;;;;;;;5.40;1.38;;;23.30;74.50;;;;;;14859417;23;20505;-49
2021/08/27 11:18:34;;;;;;;5.43;1.58;;;23.40;71.10;;;;;;14859264;23;20048;-47
2021/08/27 11:24:23;;;;;;;5.50;1.60;;;23.00;72.40;;;;;;14859870;23;20016;-47
2021/08/27 11:30:34;;;;;;;6.95;1.52;;;22.70;73.60;;;;;;14859983;23;20016;-50
2021/08/27 11:36:22;;;;;;;8.40;1.60;;;23.20;72.40;;;;;;14860620;23;20459;-50
2021/08/27 11:42:12;;;;;;;8.98;1.92;;;23.70;72.00;;;;;;14838351;23;20481;-51
2021/08/27 11:48:07;;;;;;;7.32;1.88;;;24.00;70.50;;;;;;14818633;23;20757;-51
2021/08/27 11:53:54;;;;;;;6.43;1.58;;;23.90;69.20;;;;;;14824376;23;20028;-50
2021/08/27 11:59:42;;;;;;;7.30;1.70;;;23.90;70.20;;;;;;14845768;23;20016;-52
2021/08/27 12:05:31;;;;;;;6.25;1.75;;;24.00;69.30;;;;;;14857757;23;20470;-50
2021/08/27 12:11:29;;;;;;;5.25;1.38;;;24.30;68.20;;;;;;14858044;23;20358;-47
2021/08/27 12:17:24;;;;;;;8.80;1.95;;;24.30;65.30;;;;;;14858306;23;20020;-49
2021/08/27 12:23:16;;;;;;;11.77;5.15;;;24.50;66.20;;;;;;14857985;23;20058;-51
2021/08/27 12:29:03;;;;;;;26.00;12.13;;;24.80;66.30;;;;;;14858893;23;20016;-50
2021/08/27 12:34:50;;;;;;;4.57;1.63;;;24.40;65.50;;;;;;14856248;23;20099;-49
2021/08/27 12:40:39;;;;;;;3.42;1.40;;;23.90;65.70;;;;;;14836332;23;20031;-48
2021/08/27 12:46:27;;;;;;;4.13;1.63;;;23.70;68.00;;;;;;14826582;23;20020;-51
2021/08/27 12:52:14;;;;;;;7.03;1.20;;;23.80;65.70;;;;;;14827018;23;20396;-51
2021/08/27 12:58:02;;;;;;;3.60;1.33;;;24.50;64.20;;;;;;14829112;23;20016;-48
2021/08/27 13:03:51;;;;;;;5.95;1.70;;;24.60;62.80;;;;;;14831081;23;20026;-48
2021/08/27 13:09:40;;;;;;;4.38;1.67;;;24.30;63.50;;;;;;14834317;23;20020;-49
2021/08/27 13:15:29;;;;;;;6.80;1.70;;;23.90;65.90;;;;;;14830846;23;20027;-50
2021/08/27 13:21:19;;;;;;;5.43;1.70;;;23.80;67.90;;;;;;14834523;23;20034;-52
2021/08/27 13:27:06;;;;;;;6.38;1.63;;;24.50;67.90;;;;;;14862751;23;20024;-55
2021/08/27 13:33:00;;;;;;;7.78;1.55;;;24.80;65.90;;;;;;14861685;23;20099;-49
2021/08/27 13:38:47;;;;;;;9.23;1.63;;;24.70;65.00;;;;;;14862162;23;20020;-50
2021/08/27 13:44:34;;;;;;;13.13;2.03;;;24.50;65.10;;;;;;14830756;23;20020;-49
2021/08/27 13:50:22;;;;;;;8.10;1.60;;;24.60;66.30;;;;;;14829045;23;20513;-49
2021/08/27 13:56:09;;;;;;;4.35;1.48;;;24.70;64.90;;;;;;14831625;23;20035;-49
2021/08/27 14:01:56;;;;;;;5.25;1.83;;;24.70;66.90;;;;;;14829307;23;20032;-52
2021/08/27 14:07:45;;;;;;;5.13;1.42;;;24.70;67.40;;;;;;14860584;23;20031;-49
2021/08/27 14:13:32;;;;;;;7.25;1.50;;;24.50;64.20;;;;;;14860516;23;20490;-52
2021/08/27 14:19:19;;;;;;;4.68;1.40;;;24.40;62.60;;;;;;14862552;23;20095;-50
2021/08/27 14:25:08;;;;;;;3.45;1.40;;;24.50;64.30;;;;;;14861160;23;20055;-48
2021/08/27 14:30:55;;;;;;;5.30;1.30;;;25.10;63.80;;;;;;14860043;23;20515;-51
2021/08/27 14:36:42;;;;;;;2.33;1.13;;;25.30;58.50;;;;;;14859961;23;20031;-50
2021/08/27 14:42:30;;;;;;;2.70;1.27;;;24.80;58.90;;;;;;14851699;23;20026;-51
2021/08/27 14:48:17;;;;;;;9.02;1.30;;;24.90;60.50;;;;;;14860549;23;20094;-49
2021/08/27 14:54:05;;;;;;;4.65;1.40;;;25.30;60.30;;;;;;14859963;23;20024;-50
2021/08/27 14:59:53;;;;;;;3.95;1.40;;;25.70;59.60;;;;;;14859536;23;20374;-50
2021/08/27 15:05:40;;;;;;;4.55;1.50;;;26.00;59.40;;;;;;14860365;23;20107;-50
2021/08/27 15:11:27;;;;;;;4.82;1.73;;;26.30;58.50;;;;;;14859816;23;20096;-52
2021/08/27 15:17:16;;;;;;;5.03;1.58;;;26.00;58.40;;;;;;14858448;23;20103;-49
2021/08/27 15:23:03;;;;;;;5.57;1.45;;;26.00;58.50;;;;;;14860328;23;20044;-49
2021/08/27 15:28:49;;;;;;;144.68;97.55;;;25.60;59.00;;;;;;14857455;23;20056;-49
2021/08/27 15:34:38;;;;;;;9.50;3.05;;;25.10;60.10;;;;;;14854730;23;20024;-51
2021/08/27 15:40:25;;;;;;;8.52;1.50;;;24.90;61.30;;;;;;14840376;23;20633;-49
2021/08/27 15:46:12;;;;;;;6.18;1.55;;;24.70;62.30;;;;;;14827329;23;20020;-51
2021/08/27 15:52:00;;;;;;;6.47;1.35;;;24.40;62.70;;;;;;14830710;23;20039;-50
2021/08/27 15:57:49;;;;;;;6.22;1.60;;;24.80;63.70;;;;;;14828398;23;20106;-50
2021/08/27 16:03:36;;;;;;;5.85;1.60;;;25.30;62.10;;;;;;14831262;23;20024;-49
2021/08/27 16:09:25;;;;;;;4.60;1.65;;;25.40;60.70;;;;;;14821441;23;20044;-53
2021/08/27 16:15:12;;;;;;;6.63;1.73;;;25.20;62.00;;;;;;14814011;23;20370;-52
2021/08/27 16:20:59;;;;;;;7.80;1.48;;;25.10;62.70;;;;;;14829125;23;20016;-53
2021/08/27 16:26:48;;;;;;;3.10;1.50;;;25.30;61.60;;;;;;14836213;23;20020;-52
2021/08/27 16:32:35;;;;;;;2.60;1.20;;;25.20;62.30;;;;;;14846753;23;20031;-51
2021/08/27 16:38:22;;;;;;;5.43;1.73;;;25.00;64.30;;;;;;14839179;23;20020;-51
2021/08/27 16:44:10;;;;;;;5.68;1.50;;;24.70;64.50;;;;;;14819630;23;20474;-50
2021/08/27 16:49:57;;;;;;;6.13;1.50;;;24.40;65.00;;;;;;14821827;23;20020;-52
2021/08/27 16:55:44;;;;;;;9.90;1.42;;;24.20;66.00;;;;;;14844545;23;20028;-51
2021/08/27 17:01:35;;;;;;;10.65;2.10;;;24.20;66.70;;;;;;14853889;23;20020;-49
2021/08/27 17:07:22;;;;;;;9.57;1.80;;;24.00;67.70;;;;;;14858053;23;20706;-50
2021/08/27 17:13:09;;;;;;;8.73;1.63;;;24.00;67.90;;;;;;14860753;23;20103;-51
2021/08/27 17:18:57;;;;;;;5.05;1.73;;;23.90;67.60;;;;;;14860449;23;20024;-51
2021/08/27 17:24:44;;;;;;;8.45;1.80;;;24.30;67.10;;;;;;14858059;23;20033;-51
2021/08/27 17:30:31;;;;;;;6.00;1.83;;;25.20;64.40;;;;;;14861893;23;20095;-49
2021/08/27 17:36:19;;;;;;;17.35;7.88;;;24.90;65.20;;;;;;14852430;23;20383;-52
2021/08/27 17:42:06;;;;;;;8.98;2.13;;;24.30;66.60;;;;;;14828694;23;20110;-50
2021/08/27 17:47:53;;;;;;;4.53;1.90;;;24.10;68.20;;;;;;14824557;23;20478;-49
2021/08/27 18:00:23;;;;;;;15.13;2.50;;;23.70;69.60;;;;;;14833763;23;20364;-51
2021/08/27 18:06:10;;;;;;;9.80;2.72;;;23.50;70.00;;;;;;14837231;23;20087;-65
2021/08/27 18:11:57;;;;;;;7.85;3.10;;;23.30;71.00;;;;;;14859662;23;20100;-46
2021/08/27 18:17:46;;;;;;;10.05;3.30;;;23.20;71.90;;;;;;14860236;23;20099;-45
2021/08/27 18:23:33;;;;;;;11.15;3.80;;;23.00;73.10;;;;;;14860743;23;20020;-45
2021/08/27 18:29:20;;;;;;;9.20;3.00;;;22.80;73.60;;;;;;14861077;23;20016;-45
2021/08/27 18:35:09;;;;;;;14.55;3.38;;;22.60;74.30;;;;;;14861346;23;20138;-50
2021/08/27 18:40:56;;;;;;;12.95;3.53;;;22.50;75.10;;;;;;14850046;23;20127;-46
2021/08/27 18:46:43;;;;;;;9.18;4.07;;;22.60;75.50;;;;;;14835271;23;20027;-49
2021/08/27 18:52:31;;;;;;;11.05;4.07;;;22.40;76.00;;;;;;14834351;23;20038;-47
2021/08/27 18:58:19;;;;;;;10.30;4.50;;;22.30;76.70;;;;;;14849794;23;20020;-46
2021/08/27 19:04:06;;;;;;;13.02;4.50;;;22.30;76.90;;;;;;14861160;23;20082;-50
2021/08/27 19:09:54;;;;;;;14.18;4.72;;;22.40;77.10;;;;;;14858978;23;20537;-46
2021/08/27 19:15:41;;;;;;;12.80;4.53;;;22.40;77.20;;;;;;14859128;23;20055;-45
2021/08/27 19:21:28;;;;;;;14.57;5.68;;;22.40;78.10;;;;;;14858233;23;20028;-45
2021/08/27 19:27:17;;;;;;;14.63;4.90;;;22.40;78.90;;;;;;14858893;23;20027;-45
2021/08/27 19:33:04;;;;;;;12.40;4.70;;;22.40;79.80;;;;;;14859933;23;20060;-45
2021/08/27 19:38:51;;;;;;;15.00;4.40;;;22.30;80.40;;;;;;14859854;23;20556;-47
2021/08/27 19:44:43;;;;;;;12.73;4.88;;;22.20;81.10;;;;;;14835097;23;20095;-47
2021/08/27 19:50:34;;;;;;;14.83;5.07;;;22.20;81.30;;;;;;14858870;23;20020;-45
2021/08/27 19:56:20;;;;;;;13.15;5.15;;;22.10;81.70;;;;;;14858772;23;20281;-47
2021/08/27 20:02:09;;;;;;;15.50;4.95;;;22.10;82.20;;;;;;14859767;23;20020;-44
2021/08/27 20:07:56;;;;;;;14.10;5.63;;;22.00;83.30;;;;;;14858249;23;20066;-46
2021/08/27 20:13:43;;;;;;;15.88;5.60;;;22.00;82.90;;;;;;14858095;23;20549;-43
2021/08/27 20:19:31;;;;;;;11.70;4.82;;;22.00;82.90;;;;;;14856152;23;20092;-44
2021/08/27 20:25:18;;;;;;;12.85;5.38;;;22.00;83.20;;;;;;14859105;23;20081;-46
2021/08/27 20:31:05;;;;;;;12.23;4.90;;;22.00;83.00;;;;;;14858480;23;20021;-45
2021/08/27 20:36:53;;;;;;;13.23;4.30;;;22.10;82.60;;;;;;14857245;23;20020;-44
2021/08/27 20:42:40;;;;;;;24.92;12.07;;;22.00;81.40;;;;;;14843638;23;20105;-46
2021/08/27 20:48:27;;;;;;;12.50;4.53;;;22.20;81.00;;;;;;14836466;23;20020;-45
2021/08/27 20:54:15;;;;;;;10.80;3.72;;;22.20;80.10;;;;;;14836354;23;20374;-45
2021/08/27 21:00:02;;;;;;;10.57;2.83;;;22.10;79.40;;;;;;14837186;23;20024;-45
2021/08/27 21:05:49;;;;;;;10.40;2.65;;;22.00;78.30;;;;;;14854925;23;20373;-43
2021/08/27 21:11:38;;;;;;;6.60;2.58;;;22.00;77.30;;;;;;14859073;23;20361;-44
2021/08/27 21:17:24;;;;;;;7.57;2.35;;;21.80;77.60;;;;;;14862656;23;20031;-43
